sensor_id;sensor_type;location;lat;lon;timestamp;temperature;humidity
36654;DHT22;22650;49.350;20.898;2022-08-19T00:02:13;18.60;99.90
36654;DHT22;22650;49.350;20.898;2022-08-19T00:04:47;18.60;99.90
36654;DHT22;22650;49.350;20.898;2022-08-19T00:07:24;18.50;99.90
36654;DHT22;22650;49.350;20.898;2022-08-19T00:09:58;18.50;99.90
36654;DHT22;22650;49.350;20.898;2022-08-19T00:12:32;18.50;99.90
36654;DHT22;22650;49.350;20.898;2022-08-19T00:15:19;18.40;99.90
36654;DHT22;22650;49.350;20.898;2022-08-19T00:17:54;18.40;99.90
36654;DHT22;22650;49.350;20.898;2022-08-19T00:20:27;18.40;99.90
36654;DHT22;22650;49.350;20.898;2022-08-19T00:23:01;18.30;99.90
36654;DHT22;22650;49.350;20.898;2022-08-19T00:25:36;18.30;99.90
36654;DHT22;22650;49.350;20.898;2022-08-19T00:28:11;18.30;99.90
36654;DHT22;22650;49.350;20.898;2022-08-19T00:30:46;18.30;99.90
36654;DHT22;22650;49.350;20.898;2022-08-19T00:33:19;18.20;99.90
36654;DHT22;22650;49.350;20.898;2022-08-19T00:35:55;18.20;99.90
36654;DHT22;22650;49.350;20.898;2022-08-19T00:38:29;18.20;99.90
36654;DHT22;22650;49.350;20.898;2022-08-19T00:41:09;18.10;99.90
36654;DHT22;22650;49.350;20.898;2022-08-19T00:43:43;18.10;99.90
36654;DHT22;22650;49.350;20.898;2022-08-19T00:46:32;18.10;99.90
36654;DHT22;22650;49.350;20.898;2022-08-19T00:49:09;18.10;99.90
36654;DHT22;22650;49.350;20.898;2022-08-19T00:51:46;18.00;99.90
36654;DHT22;22650;49.350;20.898;2022-08-19T00:54:20;18.00;99.90
36654;DHT22;22650;49.350;20.898;2022-08-19T00:57:06;18.00;99.90
36654;DHT22;22650;49.350;20.898;2022-08-19T00:59:42;17.90;99.90
36654;DHT22;22650;49.350;20.898;2022-08-19T01:02:35;17.90;99.90
36654;DHT22;22650;49.350;20.898;2022-08-19T01:05:11;17.80;99.90
36654;DHT22;22650;49.350;20.898;2022-08-19T01:07:48;17.80;99.90
36654;DHT22;22650;49.350;20.898;2022-08-19T01:10:25;17.80;99.90
36654;DHT22;22650;49.350;20.898;2022-08-19T01:13:05;17.80;99.90
36654;DHT22;22650;49.350;20.898;2022-08-19T01:15:42;17.70;99.90
36654;DHT22;22650;49.350;20.898;2022-08-19T01:18:19;17.70;99.90
36654;DHT22;22650;49.350;20.898;2022-08-19T01:20:55;17.70;99.90
36654;DHT22;22650;49.350;20.898;2022-08-19T01:23:31;17.70;99.90
36654;DHT22;22650;49.350;20.898;2022-08-19T01:26:18;17.70;99.90
36654;DHT22;22650;49.350;20.898;2022-08-19T01:28:53;17.70;99.90
36654;DHT22;22650;49.350;20.898;2022-08-19T01:31:32;17.60;99.90
36654;DHT22;22650;49.350;20.898;2022-08-19T01:34:06;17.60;99.90
36654;DHT22;22650;49.350;20.898;2022-08-19T01:36:42;17.60;99.90
36654;DHT22;22650;49.350;20.898;2022-08-19T01:39:21;17.60;99.90
36654;DHT22;22650;49.350;20.898;2022-08-19T01:41:54;17.50;99.90
36654;DHT22;22650;49.350;20.898;2022-08-19T01:44:28;17.50;99.90
36654;DHT22;22650;49.350;20.898;2022-08-19T01:47:02;17.50;99.90
36654;DHT22;22650;49.350;20.898;2022-08-19T01:49:36;17.40;99.90
36654;DHT22;22650;49.350;20.898;2022-08-19T01:52:10;17.40;99.90
36654;DHT22;22650;49.350;20.898;2022-08-19T01:54:45;17.40;99.90
36654;DHT22;22650;49.350;20.898;2022-08-19T01:57:19;17.40;99.90
36654;DHT22;22650;49.350;20.898;2022-08-19T01:59:52;17.30;99.90
36654;DHT22;22650;49.350;20.898;2022-08-19T02:02:26;17.30;99.90
36654;DHT22;22650;49.350;20.898;2022-08-19T02:04:59;17.30;99.90
36654;DHT22;22650;49.350;20.898;2022-08-19T02:07:33;17.30;99.90
36654;DHT22;22650;49.350;20.898;2022-08-19T02:10:15;17.30;99.90
36654;DHT22;22650;49.350;20.898;2022-08-19T02:12:49;17.30;99.90
36654;DHT22;22650;49.350;20.898;2022-08-19T02:15:23;17.20;99.90
36654;DHT22;22650;49.350;20.898;2022-08-19T02:17:57;17.20;99.90
36654;DHT22;22650;49.350;20.898;2022-08-19T02:20:31;17.10;99.90
36654;DHT22;22650;49.350;20.898;2022-08-19T02:23:05;17.10;99.90
36654;DHT22;22650;49.350;20.898;2022-08-19T02:25:49;17.10;99.90
36654;DHT22;22650;49.350;20.898;2022-08-19T02:28:24;17.10;99.90
36654;DHT22;22650;49.350;20.898;2022-08-19T02:30:58;17.00;99.90
36654;DHT22;22650;49.350;20.898;2022-08-19T02:33:32;17.00;99.90
36654;DHT22;22650;49.350;20.898;2022-08-19T02:36:07;17.00;99.90
36654;DHT22;22650;49.350;20.898;2022-08-19T02:38:42;16.90;99.90
36654;DHT22;22650;49.350;20.898;2022-08-19T02:41:29;16.90;99.90
36654;DHT22;22650;49.350;20.898;2022-08-19T02:44:03;16.90;99.90
36654;DHT22;22650;49.350;20.898;2022-08-19T02:46:57;16.90;99.90
36654;DHT22;22650;49.350;20.898;2022-08-19T02:49:31;16.80;99.90
36654;DHT22;22650;49.350;20.898;2022-08-19T02:52:06;16.80;99.90
36654;DHT22;22650;49.350;20.898;2022-08-19T02:54:39;16.80;99.90
36654;DHT22;22650;49.350;20.898;2022-08-19T02:57:14;16.80;99.90
36654;DHT22;22650;49.350;20.898;2022-08-19T02:59:47;16.80;99.90
36654;DHT22;22650;49.350;20.898;2022-08-19T03:02:21;16.70;99.90
36654;DHT22;22650;49.350;20.898;2022-08-19T03:04:55;16.70;99.90
36654;DHT22;22650;49.350;20.898;2022-08-19T03:07:28;16.70;99.90
36654;DHT22;22650;49.350;20.898;2022-08-19T03:10:03;16.60;99.90
36654;DHT22;22650;49.350;20.898;2022-08-19T03:12:39;16.60;99.90
36654;DHT22;22650;49.350;20.898;2022-08-19T03:15:13;16.60;99.90
36654;DHT22;22650;49.350;20.898;2022-08-19T03:17:46;16.60;99.90
36654;DHT22;22650;49.350;20.898;2022-08-19T03:20:20;16.60;99.90
36654;DHT22;22650;49.350;20.898;2022-08-19T03:22:53;16.60;99.90
36654;DHT22;22650;49.350;20.898;2022-08-19T03:25:27;16.60;99.90
36654;DHT22;22650;49.350;20.898;2022-08-19T03:28:02;16.60;99.90
36654;DHT22;22650;49.350;20.898;2022-08-19T03:30:35;16.50;99.90
36654;DHT22;22650;49.350;20.898;2022-08-19T03:33:12;16.50;99.90
36654;DHT22;22650;49.350;20.898;2022-08-19T03:36:00;16.50;99.90
36654;DHT22;22650;49.350;20.898;2022-08-19T03:38:34;16.50;99.90
36654;DHT22;22650;49.350;20.898;2022-08-19T03:41:10;16.50;99.90
36654;DHT22;22650;49.350;20.898;2022-08-19T03:43:45;16.50;99.90
36654;DHT22;22650;49.350;20.898;2022-08-19T03:46:22;16.40;99.90
36654;DHT22;22650;49.350;20.898;2022-08-19T03:48:58;16.50;99.90
36654;DHT22;22650;49.350;20.898;2022-08-19T03:51:33;16.40;99.90
36654;DHT22;22650;49.350;20.898;2022-08-19T03:54:10;16.40;99.90
36654;DHT22;22650;49.350;20.898;2022-08-19T03:56:46;16.40;99.90
36654;DHT22;22650;49.350;20.898;2022-08-19T03:59:24;16.40;99.90
36654;DHT22;22650;49.350;20.898;2022-08-19T04:02:01;16.40;99.90
36654;DHT22;22650;49.350;20.898;2022-08-19T04:04:35;16.40;99.90
36654;DHT22;22650;49.350;20.898;2022-08-19T04:07:11;16.40;99.90
36654;DHT22;22650;49.350;20.898;2022-08-19T04:09:47;16.40;99.90
36654;DHT22;22650;49.350;20.898;2022-08-19T04:12:22;16.40;99.90
36654;DHT22;22650;49.350;20.898;2022-08-19T04:14:57;16.40;99.90
36654;DHT22;22650;49.350;20.898;2022-08-19T04:17:31;16.40;99.90
36654;DHT22;22650;49.350;20.898;2022-08-19T04:20:05;16.50;99.90
36654;DHT22;22650;49.350;20.898;2022-08-19T04:22:39;16.50;99.90
36654;DHT22;22650;49.350;20.898;2022-08-19T04:25:13;16.50;99.90
36654;DHT22;22650;49.350;20.898;2022-08-19T04:27:46;16.50;99.90
36654;DHT22;22650;49.350;20.898;2022-08-19T04:30:21;16.50;99.90
36654;DHT22;22650;49.350;20.898;2022-08-19T04:32:55;16.50;99.90
36654;DHT22;22650;49.350;20.898;2022-08-19T04:35:34;16.60;99.90
36654;DHT22;22650;49.350;20.898;2022-08-19T04:38:09;16.60;99.90
36654;DHT22;22650;49.350;20.898;2022-08-19T04:40:46;16.60;99.90
36654;DHT22;22650;49.350;20.898;2022-08-19T04:43:38;16.70;99.90
36654;DHT22;22650;49.350;20.898;2022-08-19T04:46:13;16.70;99.90
36654;DHT22;22650;49.350;20.898;2022-08-19T04:49:07;16.70;99.90
36654;DHT22;22650;49.350;20.898;2022-08-19T04:51:46;16.70;99.90
36654;DHT22;22650;49.350;20.898;2022-08-19T04:54:22;16.80;99.90
36654;DHT22;22650;49.350;20.898;2022-08-19T04:57:09;16.80;99.90
36654;DHT22;22650;49.350;20.898;2022-08-19T04:59:43;16.80;99.90
36654;DHT22;22650;49.350;20.898;2022-08-19T05:02:18;16.90;99.90
36654;DHT22;22650;49.350;20.898;2022-08-19T05:04:55;16.90;99.90
36654;DHT22;22650;49.350;20.898;2022-08-19T05:07:29;16.90;99.90
36654;DHT22;22650;49.350;20.898;2022-08-19T05:10:03;17.00;99.90
36654;DHT22;22650;49.350;20.898;2022-08-19T05:12:37;17.00;99.90
36654;DHT22;22650;49.350;20.898;2022-08-19T05:15:11;17.10;99.90
36654;DHT22;22650;49.350;20.898;2022-08-19T05:17:46;17.10;99.90
36654;DHT22;22650;49.350;20.898;2022-08-19T05:20:33;17.20;99.90
36654;DHT22;22650;49.350;20.898;2022-08-19T05:23:24;17.20;99.90
36654;DHT22;22650;49.350;20.898;2022-08-19T05:25:58;17.30;99.90
36654;DHT22;22650;49.350;20.898;2022-08-19T05:28:31;17.30;99.90
36654;DHT22;22650;49.350;20.898;2022-08-19T05:31:05;17.40;99.90
36654;DHT22;22650;49.350;20.898;2022-08-19T05:33:39;17.40;99.90
36654;DHT22;22650;49.350;20.898;2022-08-19T05:36:13;17.50;99.90
36654;DHT22;22650;49.350;20.898;2022-08-19T05:38:47;17.50;99.90
36654;DHT22;22650;49.350;20.898;2022-08-19T05:41:22;17.50;99.90
36654;DHT22;22650;49.350;20.898;2022-08-19T05:44:04;17.60;99.90
36654;DHT22;22650;49.350;20.898;2022-08-19T05:46:43;17.70;99.90
36654;DHT22;22650;49.350;20.898;2022-08-19T05:49:21;17.70;99.90
36654;DHT22;22650;49.350;20.898;2022-08-19T05:51:55;17.80;99.90
36654;DHT22;22650;49.350;20.898;2022-08-19T05:54:29;17.90;99.90
36654;DHT22;22650;49.350;20.898;2022-08-19T05:57:03;18.00;99.90
36654;DHT22;22650;49.350;20.898;2022-08-19T05:59:37;18.10;99.90
36654;DHT22;22650;49.350;20.898;2022-08-19T06:02:10;18.20;99.90
36654;DHT22;22650;49.350;20.898;2022-08-19T06:04:46;18.30;99.90
36654;DHT22;22650;49.350;20.898;2022-08-19T06:07:20;18.40;99.90
36654;DHT22;22650;49.350;20.898;2022-08-19T06:09:54;18.50;99.90
36654;DHT22;22650;49.350;20.898;2022-08-19T06:12:32;18.60;99.90
36654;DHT22;22650;49.350;20.898;2022-08-19T06:15:10;18.70;99.90
36654;DHT22;22650;49.350;20.898;2022-08-19T06:17:44;18.80;99.90
36654;DHT22;22650;49.350;20.898;2022-08-19T06:20:19;19.00;99.90
36654;DHT22;22650;49.350;20.898;2022-08-19T06:23:12;19.00;99.90
36654;DHT22;22650;49.350;20.898;2022-08-19T06:25:48;19.20;99.90
36654;DHT22;22650;49.350;20.898;2022-08-19T06:28:21;19.30;99.90
36654;DHT22;22650;49.350;20.898;2022-08-19T06:30:55;19.40;99.90
36654;DHT22;22650;49.350;20.898;2022-08-19T06:33:29;19.60;99.90
36654;DHT22;22650;49.350;20.898;2022-08-19T06:36:04;19.70;99.90
36654;DHT22;22650;49.350;20.898;2022-08-19T06:38:38;19.80;99.90
36654;DHT22;22650;49.350;20.898;2022-08-19T06:41:11;19.90;99.90
36654;DHT22;22650;49.350;20.898;2022-08-19T06:43:45;20.10;99.90
36654;DHT22;22650;49.350;20.898;2022-08-19T06:46:18;20.20;99.90
36654;DHT22;22650;49.350;20.898;2022-08-19T06:48:52;20.40;99.90
36654;DHT22;22650;49.350;20.898;2022-08-19T06:51:28;20.50;99.90
36654;DHT22;22650;49.350;20.898;2022-08-19T06:54:08;20.70;99.90
36654;DHT22;22650;49.350;20.898;2022-08-19T06:56:51;20.90;99.90
36654;DHT22;22650;49.350;20.898;2022-08-19T06:59:25;21.00;99.90
36654;DHT22;22650;49.350;20.898;2022-08-19T07:02:02;21.20;99.90
36654;DHT22;22650;49.350;20.898;2022-08-19T07:04:37;21.40;99.90
36654;DHT22;22650;49.350;20.898;2022-08-19T07:07:15;21.50;99.90
36654;DHT22;22650;49.350;20.898;2022-08-19T07:09:51;21.70;99.90
36654;DHT22;22650;49.350;20.898;2022-08-19T07:12:32;21.90;99.90
36654;DHT22;22650;49.350;20.898;2022-08-19T07:15:09;22.10;99.90
36654;DHT22;22650;49.350;20.898;2022-08-19T07:17:43;22.30;99.90
36654;DHT22;22650;49.350;20.898;2022-08-19T07:20:20;22.50;99.90
36654;DHT22;22650;49.350;20.898;2022-08-19T07:23:01;22.60;99.90
36654;DHT22;22650;49.350;20.898;2022-08-19T07:25:39;22.90;99.90
36654;DHT22;22650;49.350;20.898;2022-08-19T07:28:12;23.10;99.90
36654;DHT22;22650;49.350;20.898;2022-08-19T07:30:55;23.30;99.90
36654;DHT22;22650;49.350;20.898;2022-08-19T07:33:29;23.50;99.90
36654;DHT22;22650;49.350;20.898;2022-08-19T07:36:05;23.70;99.90
36654;DHT22;22650;49.350;20.898;2022-08-19T07:38:42;24.00;99.90
36654;DHT22;22650;49.350;20.898;2022-08-19T07:41:19;24.20;99.90
36654;DHT22;22650;49.350;20.898;2022-08-19T07:43:52;24.50;99.90
36654;DHT22;22650;49.350;20.898;2022-08-19T07:46:26;24.70;99.90
36654;DHT22;22650;49.350;20.898;2022-08-19T07:49:00;24.90;99.90
36654;DHT22;22650;49.350;20.898;2022-08-19T07:51:34;25.20;99.90
36654;DHT22;22650;49.350;20.898;2022-08-19T08:04:03;26.10;99.90
36654;DHT22;22650;49.350;20.898;2022-08-19T08:06:54;26.50;99.90
36654;DHT22;22650;49.350;20.898;2022-08-19T08:09:45;26.70;99.90
36654;DHT22;22650;49.350;20.898;2022-08-19T08:12:23;26.90;99.90
36654;DHT22;22650;49.350;20.898;2022-08-19T08:15:11;27.20;99.90
36654;DHT22;22650;49.350;20.898;2022-08-19T08:17:48;27.50;99.90
36654;DHT22;22650;49.350;20.898;2022-08-19T08:20:24;27.80;99.90
36654;DHT22;22650;49.350;20.898;2022-08-19T08:22:57;28.00;99.90
36654;DHT22;22650;49.350;20.898;2022-08-19T08:25:48;28.30;99.90
36654;DHT22;22650;49.350;20.898;2022-08-19T08:28:22;28.50;99.90
36654;DHT22;22650;49.350;20.898;2022-08-19T08:30:58;28.80;99.90
36654;DHT22;22650;49.350;20.898;2022-08-19T08:33:32;29.00;99.90
36654;DHT22;22650;49.350;20.898;2022-08-19T08:36:08;29.30;99.90
36654;DHT22;22650;49.350;20.898;2022-08-19T08:38:43;29.60;99.90
36654;DHT22;22650;49.350;20.898;2022-08-19T08:41:22;29.60;99.90
36654;DHT22;22650;49.350;20.898;2022-08-19T08:43:59;29.60;99.90
36654;DHT22;22650;49.350;20.898;2022-08-19T08:46:39;29.80;99.90
36654;DHT22;22650;49.350;20.898;2022-08-19T08:49:32;30.00;99.90
36654;DHT22;22650;49.350;20.898;2022-08-19T08:52:11;30.10;99.90
36654;DHT22;22650;49.350;20.898;2022-08-19T08:54:51;30.50;99.90
36654;DHT22;22650;49.350;20.898;2022-08-19T08:57:30;30.60;99.90
36654;DHT22;22650;49.350;20.898;2022-08-19T09:00:17;30.80;99.90
36654;DHT22;22650;49.350;20.898;2022-08-19T09:02:53;31.00;97.50
36654;DHT22;22650;49.350;20.898;2022-08-19T09:05:36;31.20;97.80
36654;DHT22;22650;49.350;20.898;2022-08-19T09:08:29;31.40;97.60
36654;DHT22;22650;49.350;20.898;2022-08-19T09:11:07;31.70;96.40
36654;DHT22;22650;49.350;20.898;2022-08-19T09:13:49;32.00;98.20
36654;DHT22;22650;49.350;20.898;2022-08-19T09:16:30;32.20;95.90
36654;DHT22;22650;49.350;20.898;2022-08-19T09:19:05;32.40;94.80
36654;DHT22;22650;49.350;20.898;2022-08-19T09:21:39;32.60;94.30
36654;DHT22;22650;49.350;20.898;2022-08-19T09:24:14;32.70;91.80
36654;DHT22;22650;49.350;20.898;2022-08-19T09:26:47;32.70;91.40
36654;DHT22;22650;49.350;20.898;2022-08-19T09:29:24;32.90;90.60
36654;DHT22;22650;49.350;20.898;2022-08-19T09:31:57;33.00;90.00
36654;DHT22;22650;49.350;20.898;2022-08-19T09:34:31;33.20;88.00
36654;DHT22;22650;49.350;20.898;2022-08-19T09:37:09;33.30;86.40
36654;DHT22;22650;49.350;20.898;2022-08-19T09:39:47;33.50;86.50
36654;DHT22;22650;49.350;20.898;2022-08-19T09:42:21;33.60;85.70
36654;DHT22;22650;49.350;20.898;2022-08-19T09:45:02;33.90;84.50
36654;DHT22;22650;49.350;20.898;2022-08-19T09:47:41;34.10;83.10
36654;DHT22;22650;49.350;20.898;2022-08-19T09:50:15;34.30;81.40
36654;DHT22;22650;49.350;20.898;2022-08-19T09:52:50;34.50;82.90
36654;DHT22;22650;49.350;20.898;2022-08-19T09:55:30;34.70;82.20
36654;DHT22;22650;49.350;20.898;2022-08-19T09:58:03;34.90;78.20
36654;DHT22;22650;49.350;20.898;2022-08-19T10:00:37;35.10;79.20
36654;DHT22;22650;49.350;20.898;2022-08-19T10:03:11;35.20;77.30
36654;DHT22;22650;49.350;20.898;2022-08-19T10:05:45;35.20;74.10
36654;DHT22;22650;49.350;20.898;2022-08-19T10:08:28;35.30;74.40
36654;DHT22;22650;49.350;20.898;2022-08-19T10:11:04;35.40;73.10
36654;DHT22;22650;49.350;20.898;2022-08-19T10:13:58;35.50;74.00
36654;DHT22;22650;49.350;20.898;2022-08-19T10:16:31;35.60;71.70
36654;DHT22;22650;49.350;20.898;2022-08-19T10:19:10;35.90;73.60
36654;DHT22;22650;49.350;20.898;2022-08-19T10:21:44;36.10;73.10
36654;DHT22;22650;49.350;20.898;2022-08-19T10:24:21;36.20;70.70
36654;DHT22;22650;49.350;20.898;2022-08-19T10:26:57;36.40;71.30
36654;DHT22;22650;49.350;20.898;2022-08-19T10:29:31;36.30;69.50
36654;DHT22;22650;49.350;20.898;2022-08-19T10:32:08;36.40;69.20
36654;DHT22;22650;49.350;20.898;2022-08-19T10:34:42;36.40;68.00
36654;DHT22;22650;49.350;20.898;2022-08-19T10:37:19;36.60;68.50
36654;DHT22;22650;49.350;20.898;2022-08-19T10:39:59;36.80;68.70
36654;DHT22;22650;49.350;20.898;2022-08-19T10:42:37;36.90;67.80
36654;DHT22;22650;49.350;20.898;2022-08-19T10:45:11;37.00;66.60
36654;DHT22;22650;49.350;20.898;2022-08-19T10:47:44;37.10;67.80
36654;DHT22;22650;49.350;20.898;2022-08-19T10:50:19;37.30;66.30
36654;DHT22;22650;49.350;20.898;2022-08-19T10:53:10;37.40;66.50
36654;DHT22;22650;49.350;20.898;2022-08-19T10:55:44;37.70;68.60
36654;DHT22;22650;49.350;20.898;2022-08-19T10:58:37;37.90;65.70
36654;DHT22;22650;49.350;20.898;2022-08-19T11:01:11;38.10;64.70
36654;DHT22;22650;49.350;20.898;2022-08-19T11:03:45;38.20;64.60
36654;DHT22;22650;49.350;20.898;2022-08-19T11:06:24;38.20;62.80
36654;DHT22;22650;49.350;20.898;2022-08-19T11:08:58;38.20;62.80
36654;DHT22;22650;49.350;20.898;2022-08-19T11:11:32;38.20;61.60
36654;DHT22;22650;49.350;20.898;2022-08-19T11:14:14;38.10;63.10
36654;DHT22;22650;49.350;20.898;2022-08-19T11:16:49;38.20;62.50
36654;DHT22;22650;49.350;20.898;2022-08-19T11:19:24;38.30;63.80
36654;DHT22;22650;49.350;20.898;2022-08-19T11:21:58;38.40;64.80
36654;DHT22;22650;49.350;20.898;2022-08-19T11:24:35;38.40;63.90
36654;DHT22;22650;49.350;20.898;2022-08-19T11:27:09;38.40;64.10
36654;DHT22;22650;49.350;20.898;2022-08-19T11:29:44;38.50;63.90
36654;DHT22;22650;49.350;20.898;2022-08-19T11:32:18;38.50;65.20
36654;DHT22;22650;49.350;20.898;2022-08-19T11:34:51;38.70;64.60
36654;DHT22;22650;49.350;20.898;2022-08-19T11:37:27;38.60;64.60
36654;DHT22;22650;49.350;20.898;2022-08-19T11:40:01;38.60;63.50
36654;DHT22;22650;49.350;20.898;2022-08-19T11:42:34;38.40;62.50
36654;DHT22;22650;49.350;20.898;2022-08-19T11:45:28;38.20;62.70
36654;DHT22;22650;49.350;20.898;2022-08-19T11:48:02;37.90;63.00
36654;DHT22;22650;49.350;20.898;2022-08-19T11:50:36;37.90;64.20
36654;DHT22;22650;49.350;20.898;2022-08-19T11:53:13;37.80;63.30
36654;DHT22;22650;49.350;20.898;2022-08-19T11:55:47;37.80;63.20
36654;DHT22;22650;49.350;20.898;2022-08-19T11:58:21;37.60;60.90
36654;DHT22;22650;49.350;20.898;2022-08-19T12:00:56;37.70;61.60
36654;DHT22;22650;49.350;20.898;2022-08-19T12:03:29;37.80;61.60
36654;DHT22;22650;49.350;20.898;2022-08-19T12:06:04;37.80;62.70
36654;DHT22;22650;49.350;20.898;2022-08-19T12:08:38;38.00;61.80
36654;DHT22;22650;49.350;20.898;2022-08-19T12:11:12;38.10;61.70
36654;DHT22;22650;49.350;20.898;2022-08-19T12:13:46;38.10;61.60
36654;DHT22;22650;49.350;20.898;2022-08-19T12:16:23;38.10;60.10
36654;DHT22;22650;49.350;20.898;2022-08-19T12:18:58;38.20;60.00
36654;DHT22;22650;49.350;20.898;2022-08-19T12:21:35;38.10;60.70
36654;DHT22;22650;49.350;20.898;2022-08-19T12:24:09;37.80;60.30
36654;DHT22;22650;49.350;20.898;2022-08-19T12:26:43;37.70;61.70
36654;DHT22;22650;49.350;20.898;2022-08-19T12:29:24;37.70;62.50
36654;DHT22;22650;49.350;20.898;2022-08-19T12:32:03;37.70;60.20
36654;DHT22;22650;49.350;20.898;2022-08-19T12:34:36;37.80;60.50
36654;DHT22;22650;49.350;20.898;2022-08-19T12:37:10;37.80;60.00
36654;DHT22;22650;49.350;20.898;2022-08-19T12:39:44;37.80;59.90
36654;DHT22;22650;49.350;20.898;2022-08-19T12:42:18;37.70;59.10
36654;DHT22;22650;49.350;20.898;2022-08-19T12:44:54;37.80;60.00
36654;DHT22;22650;49.350;20.898;2022-08-19T12:47:29;37.70;62.30
36654;DHT22;22650;49.350;20.898;2022-08-19T12:50:05;37.80;61.70
36654;DHT22;22650;49.350;20.898;2022-08-19T12:52:40;37.90;61.70
36654;DHT22;22650;49.350;20.898;2022-08-19T12:55:14;37.90;61.60
36654;DHT22;22650;49.350;20.898;2022-08-19T12:57:48;37.80;62.30
36654;DHT22;22650;49.350;20.898;2022-08-19T13:00:22;37.80;62.20
36654;DHT22;22650;49.350;20.898;2022-08-19T13:02:58;37.80;62.80
36654;DHT22;22650;49.350;20.898;2022-08-19T13:05:32;37.90;62.60
36654;DHT22;22650;49.350;20.898;2022-08-19T13:08:06;38.10;61.80
36654;DHT22;22650;49.350;20.898;2022-08-19T13:10:39;38.10;62.50
36654;DHT22;22650;49.350;20.898;2022-08-19T13:13:13;38.10;62.00
36654;DHT22;22650;49.350;20.898;2022-08-19T13:15:47;38.20;62.30
36654;DHT22;22650;49.350;20.898;2022-08-19T13:18:22;38.10;60.50
36654;DHT22;22650;49.350;20.898;2022-08-19T13:20:56;38.00;59.40
36654;DHT22;22650;49.350;20.898;2022-08-19T13:23:29;37.80;61.40
36654;DHT22;22650;49.350;20.898;2022-08-19T13:26:05;37.70;60.20
36654;DHT22;22650;49.350;20.898;2022-08-19T13:28:40;37.70;61.90
36654;DHT22;22650;49.350;20.898;2022-08-19T13:31:34;37.70;60.50
36654;DHT22;22650;49.350;20.898;2022-08-19T13:34:30;37.70;61.40
36654;DHT22;22650;49.350;20.898;2022-08-19T13:37:05;37.70;60.90
36654;DHT22;22650;49.350;20.898;2022-08-19T13:39:38;37.70;61.90
36654;DHT22;22650;49.350;20.898;2022-08-19T13:42:12;37.60;61.20
36654;DHT22;22650;49.350;20.898;2022-08-19T13:44:45;37.70;61.30
36654;DHT22;22650;49.350;20.898;2022-08-19T13:47:19;37.70;60.90
36654;DHT22;22650;49.350;20.898;2022-08-19T13:49:54;37.80;60.80
36654;DHT22;22650;49.350;20.898;2022-08-19T13:52:27;37.60;61.10
36654;DHT22;22650;49.350;20.898;2022-08-19T13:55:01;37.60;60.30
36654;DHT22;22650;49.350;20.898;2022-08-19T13:57:37;37.60;61.20
36654;DHT22;22650;49.350;20.898;2022-08-19T14:00:16;37.50;59.70
36654;DHT22;22650;49.350;20.898;2022-08-19T14:02:51;37.40;60.00
36654;DHT22;22650;49.350;20.898;2022-08-19T14:05:30;37.30;60.40
36654;DHT22;22650;49.350;20.898;2022-08-19T14:08:03;37.20;61.30
36654;DHT22;22650;49.350;20.898;2022-08-19T14:10:37;37.20;61.60
36654;DHT22;22650;49.350;20.898;2022-08-19T14:13:13;37.00;60.40
36654;DHT22;22650;49.350;20.898;2022-08-19T14:15:48;36.90;61.00
36654;DHT22;22650;49.350;20.898;2022-08-19T14:18:21;36.70;60.90
36654;DHT22;22650;49.350;20.898;2022-08-19T14:21:01;36.70;61.10
36654;DHT22;22650;49.350;20.898;2022-08-19T14:23:35;36.50;61.30
36654;DHT22;22650;49.350;20.898;2022-08-19T14:26:11;36.50;62.40
36654;DHT22;22650;49.350;20.898;2022-08-19T14:28:45;36.60;62.40
36654;DHT22;22650;49.350;20.898;2022-08-19T14:31:19;36.40;61.80
36654;DHT22;22650;49.350;20.898;2022-08-19T14:34:01;36.40;62.30
36654;DHT22;22650;49.350;20.898;2022-08-19T14:36:36;36.30;61.80
36654;DHT22;22650;49.350;20.898;2022-08-19T14:39:10;36.10;61.70
36654;DHT22;22650;49.350;20.898;2022-08-19T14:41:44;36.10;61.60
36654;DHT22;22650;49.350;20.898;2022-08-19T14:44:17;35.90;61.90
36654;DHT22;22650;49.350;20.898;2022-08-19T14:46:51;36.00;62.50
36654;DHT22;22650;49.350;20.898;2022-08-19T14:49:25;36.10;63.40
36654;DHT22;22650;49.350;20.898;2022-08-19T14:52:17;36.00;62.00
36654;DHT22;22650;49.350;20.898;2022-08-19T14:54:50;36.00;64.30
36654;DHT22;22650;49.350;20.898;2022-08-19T14:57:24;35.90;62.80
36654;DHT22;22650;49.350;20.898;2022-08-19T14:59:59;35.80;63.70
36654;DHT22;22650;49.350;20.898;2022-08-19T15:02:32;35.60;63.40
36654;DHT22;22650;49.350;20.898;2022-08-19T15:05:07;35.50;63.30
36654;DHT22;22650;49.350;20.898;2022-08-19T15:07:42;35.40;64.00
36654;DHT22;22650;49.350;20.898;2022-08-19T15:10:16;35.30;63.70
36654;DHT22;22650;49.350;20.898;2022-08-19T15:12:50;35.30;64.90
36654;DHT22;22650;49.350;20.898;2022-08-19T15:15:25;35.30;64.60
36654;DHT22;22650;49.350;20.898;2022-08-19T15:17:59;35.30;64.50
36654;DHT22;22650;49.350;20.898;2022-08-19T15:20:34;35.30;64.20
36654;DHT22;22650;49.350;20.898;2022-08-19T15:23:09;35.30;65.80
36654;DHT22;22650;49.350;20.898;2022-08-19T15:25:44;35.20;64.70
36654;DHT22;22650;49.350;20.898;2022-08-19T15:28:17;34.90;63.80
36654;DHT22;22650;49.350;20.898;2022-08-19T15:30:51;34.70;64.50
36654;DHT22;22650;49.350;20.898;2022-08-19T15:33:25;34.60;64.40
36654;DHT22;22650;49.350;20.898;2022-08-19T15:35:58;34.40;64.70
36654;DHT22;22650;49.350;20.898;2022-08-19T15:38:34;34.30;65.40
36654;DHT22;22650;49.350;20.898;2022-08-19T15:41:17;34.20;65.00
36654;DHT22;22650;49.350;20.898;2022-08-19T15:43:59;34.20;64.90
36654;DHT22;22650;49.350;20.898;2022-08-19T15:46:36;34.00;65.20
36654;DHT22;22650;49.350;20.898;2022-08-19T15:49:12;33.90;65.40
36654;DHT22;22650;49.350;20.898;2022-08-19T15:51:47;33.90;66.10
36654;DHT22;22650;49.350;20.898;2022-08-19T15:54:22;33.80;66.50
36654;DHT22;22650;49.350;20.898;2022-08-19T15:56:56;33.60;66.20
36654;DHT22;22650;49.350;20.898;2022-08-19T15:59:47;33.40;66.00
36654;DHT22;22650;49.350;20.898;2022-08-19T16:02:38;33.30;66.70
36654;DHT22;22650;49.350;20.898;2022-08-19T16:05:30;33.10;66.50
36654;DHT22;22650;49.350;20.898;2022-08-19T16:08:20;33.00;66.80
36654;DHT22;22650;49.350;20.898;2022-08-19T16:10:55;32.90;67.70
36654;DHT22;22650;49.350;20.898;2022-08-19T16:13:29;32.90;68.70
36654;DHT22;22650;49.350;20.898;2022-08-19T16:16:03;32.90;68.40
36654;DHT22;22650;49.350;20.898;2022-08-19T16:18:37;32.80;68.80
36654;DHT22;22650;49.350;20.898;2022-08-19T16:21:10;32.80;68.50
36654;DHT22;22650;49.350;20.898;2022-08-19T16:23:46;32.70;67.90